createdAt,value
2018-10-16T00:01:09.118Z,12.87
2018-10-16T00:03:37.496Z,13.09
2018-10-16T00:06:05.872Z,13.16
2018-10-16T00:08:34.245Z,13.15
2018-10-16T00:11:02.624Z,13.05
2018-10-16T00:13:31.001Z,13.31
2018-10-16T00:15:59.375Z,13.45
2018-10-16T00:18:27.752Z,13.11
2018-10-16T00:20:56.132Z,12.96
2018-10-16T00:23:24.502Z,13.22
2018-10-16T00:25:52.879Z,13.02
2018-10-16T00:28:21.256Z,13.16
2018-10-16T00:30:49.648Z,13.20
2018-10-16T00:33:18.026Z,13.27
2018-10-16T00:35:46.404Z,13.06
2018-10-16T00:38:14.784Z,13.27
2018-10-16T00:40:43.163Z,13.04
2018-10-16T00:43:11.539Z,13.19
2018-10-16T00:45:39.912Z,13.35
2018-10-16T00:48:08.289Z,13.31
2018-10-16T00:50:36.666Z,13.30
2018-10-16T00:53:05.042Z,13.05
2018-10-16T00:55:33.413Z,13.22
2018-10-16T00:58:01.787Z,12.91
2018-10-16T01:00:30.688Z,13.08
2018-10-16T01:02:59.060Z,13.15
2018-10-16T01:05:27.448Z,13.06
2018-10-16T01:07:55.822Z,13.23
2018-10-16T01:10:24.195Z,13.20
2018-10-16T01:12:52.572Z,13.17
2018-10-16T01:15:20.943Z,12.97
2018-10-16T01:17:49.317Z,12.82
2018-10-16T01:20:17.693Z,12.79
2018-10-16T01:22:46.074Z,12.71
2018-10-16T01:25:14.468Z,12.75
2018-10-16T01:27:42.829Z,12.92
2018-10-16T01:30:11.255Z,12.94
2018-10-16T01:32:39.635Z,12.85
2018-10-16T01:35:08.006Z,12.97
2018-10-16T01:37:36.386Z,12.80
2018-10-16T01:40:04.771Z,12.86
2018-10-16T01:42:33.261Z,12.64
2018-10-16T01:45:01.643Z,12.38
2018-10-16T01:47:30.014Z,12.75
2018-10-16T01:49:58.403Z,12.64
2018-10-16T01:52:26.783Z,12.67
2018-10-16T01:54:55.164Z,12.58
2018-10-16T01:57:23.543Z,12.83
2018-10-16T01:59:52.222Z,12.73
2018-10-16T02:02:20.602Z,12.70
2018-10-16T02:04:49.095Z,12.55
2018-10-16T02:07:17.480Z,12.72
2018-10-16T02:09:45.857Z,12.89
2018-10-16T02:12:14.705Z,12.56
2018-10-16T02:14:43.093Z,12.64
2018-10-16T02:17:11.453Z,12.67
2018-10-16T02:19:39.826Z,12.76
2018-10-16T02:22:08.202Z,12.65
2018-10-16T02:24:36.577Z,12.58
2018-10-16T02:27:04.954Z,13.18
2018-10-16T02:29:33.330Z,13.42
2018-10-16T02:32:01.700Z,13.70
2018-10-16T02:34:30.075Z,13.72
2018-10-16T02:36:58.449Z,13.59
2018-10-16T02:39:26.825Z,13.47
2018-10-16T02:41:55.617Z,13.55
2018-10-16T18:46:08.877Z,14.09
2018-10-16T18:48:39.296Z,13.63
2018-10-16T18:51:11.261Z,13.40
2018-10-16T18:53:39.544Z,13.16
2018-10-16T18:56:10.765Z,13.07
2018-10-16T18:58:38.160Z,13.29
2018-10-16T19:01:06.509Z,13.28
2018-10-16T19:03:34.926Z,13.49
2018-10-16T19:06:03.273Z,13.08
2018-10-16T19:08:31.035Z,13.29
2018-10-16T19:11:00.115Z,13.20
2018-10-16T19:13:31.345Z,13.06
2018-10-16T19:15:58.719Z,12.91
2018-10-16T19:18:27.073Z,13.04
2018-10-16T19:20:55.770Z,12.96
2018-10-16T19:23:24.591Z,13.01
2018-10-16T19:25:52.936Z,12.85
2018-10-16T19:28:21.268Z,12.70
2018-10-16T19:30:49.720Z,12.81
2018-10-16T19:33:18.054Z,12.74
2018-10-16T19:35:46.397Z,12.56
2018-10-16T19:38:14.148Z,12.75
2018-10-16T19:40:43.309Z,12.84
2018-10-16T19:43:13.742Z,12.67
2018-10-16T19:45:43.014Z,12.66
2018-10-16T19:48:14.740Z,12.51
2018-10-16T19:50:43.079Z,12.43
2018-10-16T19:53:10.825Z,12.48
2018-10-16T19:55:39.748Z,12.42
2018-10-16T19:58:08.368Z,12.40
2018-10-16T20:00:36.700Z,12.55
2018-10-16T20:03:05.091Z,12.57
2018-10-16T20:05:33.404Z,12.46
2018-10-16T20:08:01.747Z,12.49
2018-10-16T20:10:30.322Z,12.53
2018-10-16T20:12:58.427Z,12.46
2018-10-16T20:15:26.800Z,12.18
2018-10-16T20:17:55.210Z,12.04
2018-10-16T20:20:23.608Z,11.89
2018-10-16T20:22:51.919Z,11.78
2018-10-16T20:25:20.440Z,11.95
2018-10-16T20:27:48.791Z,11.99
2018-10-16T20:30:16.549Z,12.28
2018-10-16T20:32:45.509Z,11.77
2018-10-16T20:35:13.854Z,11.93
2018-10-16T20:37:41.613Z,12.03
2018-10-16T20:40:09.954Z,11.77
2018-10-16T20:42:38.287Z,11.84
2018-10-16T20:45:07.338Z,11.82
2018-10-16T20:47:35.196Z,11.65
2018-10-16T20:50:04.046Z,11.40
2018-10-16T20:52:32.450Z,11.38
2018-10-16T20:55:00.240Z,11.43
2018-10-16T20:57:29.195Z,11.56
2018-10-16T20:59:57.471Z,11.32
2018-10-16T21:02:25.863Z,11.39
2018-10-16T21:04:54.903Z,11.27
2018-10-16T21:07:23.189Z,11.69
2018-10-16T21:09:50.986Z,11.66
2018-10-16T21:12:19.935Z,11.72
2018-10-16T21:14:47.782Z,11.62
2018-10-16T21:17:16.812Z,11.53
2018-10-16T21:19:45.173Z,11.58
2018-10-16T21:22:13.639Z,11.57
2018-10-16T21:24:41.851Z,11.56
2018-10-16T21:27:10.368Z,11.28
2018-10-16T21:29:38.773Z,11.32
2018-10-16T21:32:07.111Z,11.24
2018-10-16T21:34:34.917Z,11.15
2018-10-16T21:37:03.875Z,10.79
2018-10-16T21:39:32.170Z,10.87
2018-10-16T21:41:59.926Z,11.02
2018-10-16T21:44:28.847Z,11.04
2018-10-16T21:46:56.790Z,10.78
2018-10-16T21:49:25.514Z,10.85
2018-10-16T21:51:53.847Z,10.96
